createdAt,value
2019-05-06T00:01:34.092Z,67.49
2019-05-06T00:04:37.532Z,68.83
2019-05-06T00:07:44.477Z,68.02
2019-05-06T00:10:48.269Z,67.36
2019-05-06T00:13:54.092Z,67.70
2019-05-06T00:16:58.761Z,68.33
2019-05-06T00:20:04.282Z,68.79
2019-05-06T00:23:24.833Z,68.80
2019-05-06T00:26:56.935Z,69.68
2019-05-06T00:29:59.297Z,69.31
2019-05-06T00:33:04.378Z,69.20
2019-05-06T00:36:08.177Z,69.33
2019-05-06T00:39:40.170Z,69.56
2019-05-06T00:42:57.389Z,69.68
2019-05-06T00:46:01.102Z,69.91
2019-05-06T00:49:04.867Z,69.84
2019-05-06T00:52:08.831Z,69.61
2019-05-06T00:55:13.711Z,69.84
2019-05-06T00:58:17.544Z,69.41
2019-05-06T01:01:27.031Z,70.90
2019-05-06T01:04:26.860Z,70.37
2019-05-06T01:07:30.560Z,70.44
2019-05-06T01:10:34.498Z,71.18
2019-05-06T01:13:54.521Z,70.78
2019-05-06T01:16:58.346Z,70.65
2019-05-06T01:20:04.338Z,70.83
2019-05-06T01:23:08.287Z,70.97
2019-05-06T01:26:14.907Z,70.32
2019-05-06T01:29:18.270Z,71.06
2019-05-06T01:32:23.659Z,70.84
2019-05-06T01:35:27.437Z,71.66
2019-05-06T01:38:35.601Z,71.91
2019-05-06T01:41:48.559Z,71.77
2019-05-06T01:44:53.848Z,71.99
2019-05-06T01:47:57.931Z,71.85
2019-05-06T01:51:03.459Z,71.43
2019-05-06T01:54:07.109Z,71.66
2019-05-06T01:57:10.821Z,71.55
2019-05-06T02:00:14.936Z,72.14
2019-05-06T02:03:18.631Z,72.09
2019-05-06T02:06:24.785Z,72.28
2019-05-06T02:09:27.828Z,71.90
2019-05-06T02:12:31.509Z,71.64
2019-05-06T02:15:35.220Z,72.52
2019-05-06T02:18:39.197Z,72.17
2019-05-06T02:22:17.071Z,71.70
2019-05-06T02:25:24.717Z,72.23
2019-05-06T02:28:28.431Z,72.26
2019-05-06T02:31:54.626Z,71.69
2019-05-06T02:35:15.373Z,72.21
2019-05-06T02:38:35.578Z,72.84
2019-05-06T02:41:33.721Z,72.62
2019-05-06T02:44:37.838Z,73.24
2019-05-06T02:47:53.692Z,72.72
2019-05-06T02:50:59.281Z,72.93
2019-05-06T02:54:03.416Z,72.84
2019-05-06T02:57:07.576Z,72.67
2019-05-06T03:00:15.108Z,72.87
2019-05-06T03:03:18.875Z,73.05
2019-05-06T03:06:23.842Z,73.79
2019-05-06T03:09:27.725Z,72.46
2019-05-06T03:12:33.524Z,73.03
2019-05-06T03:15:36.846Z,72.25
2019-05-06T03:18:43.136Z,72.40
2019-05-06T03:21:57.913Z,74.46
2019-05-06T03:25:13.902Z,73.71
2019-05-06T03:28:17.589Z,73.11
2019-05-06T03:31:25.952Z,73.48
2019-05-06T03:34:49.236Z,74.39
2019-05-06T03:37:33.428Z,72.81
2019-05-06T03:40:41.821Z,74.62
2019-05-06T03:43:43.678Z,74.97
2019-05-06T03:47:09.293Z,74.64
2019-05-06T03:50:13.503Z,74.51
2019-05-06T03:53:17.294Z,74.15
2019-05-06T03:56:23.946Z,73.77
2019-05-06T03:59:33.299Z,74.15
2019-05-06T04:02:39.416Z,74.31
2019-05-06T04:05:43.571Z,73.90
2019-05-06T04:08:48.075Z,74.32
2019-05-06T04:11:54.149Z,74.18
2019-05-06T04:14:57.681Z,74.16
2019-05-06T04:18:06.530Z,74.40
2019-05-06T04:21:18.999Z,74.47
2019-05-06T04:24:30.000Z,73.68
2019-05-06T04:27:38.123Z,73.99
2019-05-06T04:30:42.980Z,73.81
2019-05-06T04:34:05.329Z,74.04
2019-05-06T04:36:53.301Z,74.90
2019-05-06T04:39:57.557Z,74.43
2019-05-06T04:43:03.614Z,73.75
2019-05-06T04:46:07.221Z,74.95
2019-05-06T04:49:14.882Z,74.62
2019-05-06T04:52:17.308Z,73.78
2019-05-06T04:55:22.634Z,74.54
2019-05-06T04:58:27.178Z,74.09
2019-05-06T05:01:33.883Z,73.87
2019-05-06T05:04:37.127Z,73.19
2019-05-06T05:07:42.547Z,72.71
2019-05-06T05:10:53.097Z,72.62
2019-05-06T05:14:14.737Z,72.10
2019-05-06T05:17:25.156Z,72.30
2019-05-06T05:20:37.683Z,71.98
2019-05-06T05:23:34.674Z,71.81
2019-05-06T05:26:39.038Z,71.75
2019-05-06T05:29:42.728Z,71.99
2019-05-06T05:32:46.880Z,72.67
2019-05-06T05:35:52.598Z,71.65
2019-05-06T05:38:56.089Z,71.15
2019-05-06T05:42:05.694Z,70.59
2019-05-06T05:45:10.313Z,70.42
2019-05-06T05:48:24.470Z,70.33
2019-05-06T05:51:28.507Z,70.46
2019-05-06T05:54:33.276Z,70.47
2019-05-06T05:57:37.378Z,69.87
2019-05-06T06:00:42.585Z,69.55
2019-05-06T06:03:46.564Z,68.84
2019-05-06T06:06:51.993Z,68.25
2019-05-06T06:10:03.027Z,67.51
2019-05-06T06:13:06.952Z,66.78
2019-05-06T06:16:38.904Z,66.93
2019-05-06T06:19:50.717Z,68.00
2019-05-06T06:22:56.498Z,66.62
2019-05-06T06:26:03.681Z,65.72
2019-05-06T06:29:06.040Z,66.09
2019-05-06T06:32:18.104Z,65.19
2019-05-06T06:35:27.600Z,65.31
2019-05-06T06:38:56.450Z,66.07
2019-05-06T06:42:00.158Z,65.89
2019-05-06T06:45:04.645Z,65.24
2019-05-06T06:48:08.494Z,65.38
2019-05-06T06:51:12.787Z,64.99
2019-05-06T06:54:16.466Z,65.12
2019-05-06T06:57:36.322Z,64.45
2019-05-06T07:01:16.019Z,63.94
2019-05-06T07:04:28.850Z,62.91
2019-05-06T07:07:43.449Z,63.84
2019-05-06T07:10:45.059Z,63.42
2019-05-06T07:13:55.574Z,63.84
2019-05-06T07:16:59.536Z,65.01
2019-05-06T07:20:06.921Z,65.76
2019-05-06T07:23:27.184Z,66.37
2019-05-06T07:26:35.939Z,66.15
2019-05-06T07:29:39.885Z,65.25
2019-05-06T07:32:43.704Z,65.14
2019-05-06T07:35:48.176Z,64.11
2019-05-06T07:38:52.650Z,64.54
2019-05-06T07:41:59.255Z,63.26
2019-05-06T07:45:15.502Z,62.36
2019-05-06T07:48:19.222Z,61.61
2019-05-06T07:51:23.836Z,60.94
2019-05-06T07:54:27.834Z,61.02
2019-05-06T07:57:32.992Z,59.93
2019-05-06T08:00:37.646Z,59.06
2019-05-06T08:03:42.756Z,60.04
2019-05-06T08:06:46.700Z,59.86
2019-05-06T08:09:52.426Z,60.49
2019-05-06T08:12:55.896Z,59.90
2019-05-06T08:15:59.607Z,58.68
2019-05-06T08:19:03.516Z,58.26
2019-05-06T08:22:12.002Z,57.79
2019-05-06T08:25:16.026Z,58.26
2019-05-06T08:28:22.394Z,57.63
2019-05-06T08:31:25.476Z,57.99
2019-05-06T08:34:29.172Z,58.01
2019-05-06T08:37:34.851Z,57.17
2019-05-06T08:40:38.603Z,57.46
2019-05-06T08:43:42.371Z,61.71
2019-05-06T08:46:46.389Z,64.58
2019-05-06T08:50:02.523Z,67.59
2019-05-06T08:53:23.989Z,70.83
2019-05-06T08:56:25.450Z,71.27
2019-05-06T08:59:29.160Z,71.57
2019-05-06T09:02:32.853Z,71.49
2019-05-06T09:05:36.552Z,71.18
2019-05-06T09:08:42.838Z,69.31
2019-05-06T09:11:46.014Z,68.36
2019-05-06T09:14:49.719Z,68.25
2019-05-06T09:17:53.402Z,67.05
2019-05-06T09:20:57.444Z,67.78
2019-05-06T09:24:02.250Z,66.52
2019-05-06T09:27:42.173Z,66.11
2019-05-06T09:30:52.414Z,66.70
2019-05-06T09:34:02.787Z,64.26
2019-05-06T09:37:15.341Z,61.77
2019-05-06T09:40:19.215Z,62.65
2019-05-06T09:43:23.187Z,61.00
2019-05-06T09:46:26.901Z,62.63
2019-05-06T09:49:32.944Z,62.49
2019-05-06T09:52:36.736Z,61.03
2019-05-06T09:55:46.035Z,62.96
2019-05-06T09:58:49.814Z,64.07
2019-05-06T10:01:53.746Z,64.53
2019-05-06T10:04:57.742Z,64.90
2019-05-06T10:08:03.328Z,65.62
2019-05-06T10:11:07.215Z,64.61
2019-05-06T10:14:12.907Z,62.24
2019-05-06T10:17:16.475Z,61.94
2019-05-06T10:20:22.269Z,59.24
2019-05-06T10:23:25.613Z,56.56
2019-05-06T10:26:33.325Z,55.90
2019-05-06T10:29:45.131Z,58.07
2019-05-06T10:32:52.892Z,56.74
2019-05-06T10:36:02.537Z,57.93
2019-05-06T10:39:10.081Z,64.03
2019-05-06T10:42:17.607Z,70.39
2019-05-06T10:45:28.267Z,72.43
2019-05-06T10:48:31.983Z,70.93
2019-05-06T10:51:45.640Z,71.16
2019-05-06T10:54:49.695Z,66.39
2019-05-06T10:57:53.404Z,62.58
2019-05-06T11:01:08.830Z,56.41
2019-05-06T11:04:12.535Z,51.03
2019-05-06T11:07:28.266Z,51.16
2019-05-06T11:10:27.893Z,47.60
2019-05-06T11:13:27.279Z,46.48
2019-05-06T11:16:33.125Z,41.02
2019-05-06T11:19:36.405Z,43.62
2019-05-06T11:22:40.116Z,44.39
2019-05-06T11:25:43.950Z,46.32
2019-05-06T11:28:52.060Z,45.18
2019-05-06T11:32:02.507Z,45.28
2019-05-06T11:35:12.326Z,47.04
2019-05-06T11:38:17.581Z,52.80
2019-05-06T11:41:23.341Z,58.69
2019-05-06T11:44:27.006Z,65.66
2019-05-06T11:47:32.464Z,68.79
2019-05-06T11:50:36.681Z,69.12
2019-05-06T11:53:40.377Z,69.01
2019-05-06T11:56:50.660Z,70.89
2019-05-06T11:59:49.701Z,70.77
2019-05-06T12:02:53.742Z,69.18
2019-05-06T12:05:57.440Z,71.37
2019-05-06T12:09:06.072Z,70.71
2019-05-06T12:12:06.865Z,62.19
2019-05-06T12:15:12.570Z,59.53
2019-05-06T12:18:16.404Z,55.68
2019-05-06T12:21:20.103Z,55.50
2019-05-06T12:24:23.826Z,57.35
2019-05-06T12:27:46.004Z,62.33
2019-05-06T12:30:52.231Z,65.77
2019-05-06T12:33:55.511Z,70.21
2019-05-06T12:37:02.690Z,73.70
2019-05-06T12:40:06.818Z,74.67
2019-05-06T12:43:28.703Z,73.20
2019-05-06T12:46:38.878Z,72.99
2019-05-06T12:49:42.799Z,74.22
2019-05-06T12:52:46.577Z,72.84
2019-05-06T12:55:52.020Z,72.66
2019-05-06T12:58:56.063Z,72.96
2019-05-06T13:02:02.423Z,75.11
2019-05-06T13:05:05.835Z,75.55
2019-05-06T13:08:09.918Z,75.02
2019-05-06T13:11:13.673Z,74.96
2019-05-06T13:14:17.474Z,72.38
2019-05-06T13:17:26.249Z,71.95
2019-05-06T13:20:34.380Z,71.10
2019-05-06T13:23:47.933Z,67.33
2019-05-06T13:26:52.840Z,72.28
2019-05-06T13:29:56.823Z,72.85
2019-05-06T13:33:07.313Z,70.79
2019-05-06T13:36:13.167Z,72.27
2019-05-06T13:39:17.536Z,72.22
2019-05-06T13:42:22.896Z,73.45
2019-05-06T13:45:26.615Z,73.80
2019-05-06T13:48:35.283Z,74.12
2019-05-06T13:51:39.674Z,74.51
2019-05-06T13:54:58.914Z,75.16
2019-05-06T13:58:12.560Z,73.88
2019-05-06T14:01:32.547Z,74.98
2019-05-06T14:04:45.853Z,74.36
2019-05-06T14:08:05.869Z,75.01
2019-05-06T14:11:09.622Z,74.90
2019-05-06T14:14:14.029Z,74.59
2019-05-06T14:17:17.726Z,74.66
2019-05-06T14:20:22.076Z,74.95
2019-05-06T14:23:25.954Z,74.81
2019-05-06T14:26:39.236Z,73.01
2019-05-06T14:29:53.302Z,75.05
2019-05-06T14:32:57.234Z,75.77
2019-05-06T14:36:03.255Z,75.13
2019-05-06T14:39:12.544Z,75.25
2019-05-06T14:42:15.885Z,75.68
2019-05-06T14:45:22.016Z,78.13
2019-05-06T14:48:25.012Z,75.29
2019-05-06T14:51:28.713Z,74.28
2019-05-06T14:54:33.140Z,71.67
2019-05-06T14:57:37.393Z,73.07
2019-05-06T15:00:42.542Z,71.05
2019-05-06T15:03:46.381Z,70.43
2019-05-06T15:06:50.073Z,70.05
2019-05-06T15:10:08.029Z,70.76
2019-05-06T15:12:59.277Z,69.09
2019-05-06T15:16:03.690Z,71.03
2019-05-06T15:19:08.048Z,68.64
2019-05-06T15:22:13.000Z,69.19
2019-05-06T15:25:17.104Z,69.90
2019-05-06T15:28:22.638Z,65.06
2019-05-06T15:31:42.306Z,67.32
2019-05-06T15:34:56.253Z,65.64
2019-05-06T15:38:02.676Z,66.37
2019-05-06T15:41:06.389Z,67.49
2019-05-06T15:44:12.478Z,64.68
2019-05-06T15:47:15.764Z,64.67
2019-05-06T15:50:20.051Z,67.34
2019-05-06T15:53:23.746Z,65.52
2019-05-06T15:56:27.450Z,64.44
2019-05-06T15:59:33.239Z,63.99
2019-05-06T16:02:36.751Z,67.57
2019-05-06T16:05:40.451Z,66.87
2019-05-06T16:08:44.147Z,65.08
2019-05-06T16:11:48.120Z,69.03
2019-05-06T16:14:53.087Z,64.94
2019-05-06T16:17:57.282Z,65.93
2019-05-06T16:21:02.963Z,66.07
2019-05-06T16:24:17.398Z,68.81
2019-05-06T16:27:22.976Z,66.83
2019-05-06T16:30:26.903Z,69.65
2019-05-06T16:33:32.902Z,69.88
2019-05-06T16:36:36.319Z,71.60
2019-05-06T16:39:40.352Z,73.15
2019-05-06T16:42:45.898Z,73.26
2019-05-06T16:45:52.940Z,73.67
2019-05-06T16:48:55.535Z,74.87
2019-05-06T16:51:59.563Z,74.57
2019-05-06T16:55:03.540Z,75.74
2019-05-06T16:58:11.808Z,74.56
2019-05-06T17:01:15.595Z,74.99
2019-05-06T17:04:41.838Z,74.88
2019-05-06T17:07:45.882Z,75.07
2019-05-06T17:10:49.583Z,74.85
2019-05-06T17:13:53.279Z,75.83
2019-05-06T17:16:57.397Z,73.87
2019-05-06T17:20:03.083Z,74.82
2019-05-06T17:23:06.529Z,72.84
2019-05-06T17:26:10.250Z,74.40
2019-05-06T17:29:38.786Z,73.98
2019-05-06T17:32:45.877Z,75.20
2019-05-06T17:35:49.609Z,73.17
2019-05-06T17:38:53.888Z,72.44
2019-05-06T17:41:57.598Z,72.35
2019-05-06T17:45:03.983Z,72.19
2019-05-06T17:48:14.191Z,71.91
2019-05-06T17:51:19.963Z,71.87
2019-05-06T17:54:25.897Z,73.05
2019-05-06T17:57:29.168Z,71.71
2019-05-06T18:00:32.879Z,72.90
2019-05-06T18:03:36.587Z,70.53
2019-05-06T18:06:42.441Z,71.74
2019-05-06T18:09:45.707Z,72.02
2019-05-06T18:12:49.415Z,71.24
2019-05-06T18:15:53.451Z,72.03
2019-05-06T18:18:57.169Z,72.59
2019-05-06T18:22:02.569Z,73.60
2019-05-06T18:25:06.653Z,72.42
2019-05-06T18:28:12.273Z,73.48
2019-05-06T18:31:16.079Z,72.59
2019-05-06T18:34:19.785Z,73.46
2019-05-06T18:37:23.535Z,73.24
2019-05-06T18:40:27.181Z,72.52
2019-05-06T18:43:33.241Z,73.63
2019-05-06T18:46:36.402Z,72.02
2019-05-06T18:49:42.434Z,73.09
2019-05-06T18:52:45.553Z,74.24
2019-05-06T18:55:49.300Z,73.13
2019-05-06T18:58:53.264Z,73.29
2019-05-06T19:01:57.414Z,73.00
2019-05-06T19:05:15.938Z,72.62
2019-05-06T19:08:42.235Z,73.74
2019-05-06T19:11:46.065Z,73.61
2019-05-06T19:14:49.766Z,73.21
2019-05-06T19:17:53.709Z,73.75
2019-05-06T19:20:57.413Z,72.63
2019-05-06T19:24:02.786Z,72.65
2019-05-06T19:27:06.628Z,73.12
2019-05-06T19:30:12.827Z,73.58
2019-05-06T19:33:16.579Z,72.70
2019-05-06T19:36:20.292Z,72.66
2019-05-06T19:39:24.684Z,73.67
2019-05-06T19:42:42.230Z,72.58
2019-05-06T19:45:34.645Z,73.33
2019-05-06T19:48:38.410Z,73.64
2019-05-06T19:51:42.868Z,74.06
2019-05-06T19:54:46.611Z,74.33
2019-05-06T19:57:52.508Z,73.56
2019-05-06T20:00:56.443Z,74.76
2019-05-06T20:04:02.330Z,74.32
2019-05-06T20:07:13.272Z,75.24
2019-05-06T20:10:27.523Z,74.58
2019-05-06T20:13:32.256Z,75.34
2019-05-06T20:16:36.097Z,74.46
2019-05-06T20:19:39.870Z,75.40
2019-05-06T20:22:44.004Z,74.88
2019-05-06T20:25:47.736Z,74.52
2019-05-06T20:28:52.616Z,74.52
2019-05-06T20:31:56.421Z,75.18
2019-05-06T20:35:00.107Z,74.58
2019-05-06T20:38:03.905Z,74.94
2019-05-06T20:41:07.629Z,75.24
2019-05-06T20:44:12.391Z,75.07
2019-05-06T20:47:16.101Z,75.72
2019-05-06T20:50:19.919Z,75.09
2019-05-06T20:53:23.955Z,75.19
2019-05-06T20:56:27.658Z,74.39
2019-05-06T20:59:32.226Z,75.68
2019-05-06T21:02:36.039Z,75.37
2019-05-06T21:05:39.730Z,76.34
2019-05-06T21:08:43.429Z,75.19
2019-05-06T21:11:47.130Z,76.20
2019-05-06T21:14:50.872Z,76.04
2019-05-06T21:17:54.572Z,75.84
2019-05-06T21:20:58.586Z,75.92
2019-05-06T21:24:02.278Z,75.86
2019-05-06T21:27:06.057Z,76.40
2019-05-06T21:30:10.506Z,76.57
2019-05-06T21:33:14.210Z,76.70
2019-05-06T21:36:18.385Z,76.99
2019-05-06T21:39:22.512Z,77.80
2019-05-06T21:42:26.250Z,77.10
2019-05-06T21:45:29.978Z,77.42
2019-05-06T21:48:33.987Z,77.50
2019-05-06T21:51:37.671Z,77.56
2019-05-06T21:54:43.449Z,77.71
2019-05-06T21:57:46.793Z,77.32
2019-05-06T22:01:06.436Z,77.07
2019-05-06T22:04:12.787Z,77.47
2019-05-06T22:07:15.982Z,77.47
2019-05-06T22:10:19.689Z,77.19
2019-05-06T22:13:23.397Z,77.52
2019-05-06T22:16:27.086Z,77.35
2019-05-06T22:19:32.038Z,77.41
2019-05-06T22:22:36.086Z,76.77
2019-05-06T22:25:39.789Z,77.47
2019-05-06T22:28:43.506Z,76.49
2019-05-06T22:31:47.209Z,77.25
2019-05-06T22:34:50.919Z,76.90
2019-05-06T22:37:54.628Z,76.91
2019-05-06T22:40:58.336Z,77.17
2019-05-06T22:44:13.342Z,77.21
2019-05-06T22:47:07.492Z,76.85
2019-05-06T22:50:13.043Z,77.15
2019-05-06T22:53:16.942Z,76.87
2019-05-06T22:56:22.631Z,76.95
2019-05-06T22:59:26.090Z,76.75
2019-05-06T23:02:45.687Z,77.31
2019-05-06T23:05:49.387Z,77.32
2019-05-06T23:08:53.332Z,77.00
2019-05-06T23:11:57.042Z,77.63
2019-05-06T23:15:02.693Z,78.08
2019-05-06T23:18:06.329Z,79.04
2019-05-06T23:21:11.779Z,77.29
2019-05-06T23:24:15.453Z,77.47
2019-05-06T23:27:19.162Z,77.62
2019-05-06T23:30:23.601Z,77.87
2019-05-06T23:33:27.488Z,78.06
2019-05-06T23:37:12.903Z,78.15
2019-05-06T23:40:52.470Z,77.88
2019-05-06T23:44:44.974Z,78.16
2019-05-06T23:48:13.571Z,78.38
2019-05-06T23:51:53.299Z,79.35
2019-05-06T23:55:33.066Z,78.64
2019-05-06T23:58:36.774Z,78.33
